sensor_id;sensor_type;location;lat;lon;timestamp;temperature;humidity
30206;DHT22;17010;51.306;3.150;2023-04-03T00:01:21;5.60;99.90
30206;DHT22;17010;51.306;3.150;2023-04-03T00:03:47;5.70;99.90
30206;DHT22;17010;51.306;3.150;2023-04-03T00:06:14;5.70;99.90
30206;DHT22;17010;51.306;3.150;2023-04-03T00:08:40;5.60;99.90
30206;DHT22;17010;51.306;3.150;2023-04-03T00:11:08;5.60;99.90
30206;DHT22;17010;51.306;3.150;2023-04-03T00:13:34;5.50;99.90
30206;DHT22;17010;51.306;3.150;2023-04-03T00:16:00;5.50;99.90
30206;DHT22;17010;51.306;3.150;2023-04-03T00:18:27;5.50;99.90
30206;DHT22;17010;51.306;3.150;2023-04-03T00:20:53;5.50;99.90
30206;DHT22;17010;51.306;3.150;2023-04-03T00:23:19;5.50;99.90
30206;DHT22;17010;51.306;3.150;2023-04-03T00:25:45;5.60;99.90
30206;DHT22;17010;51.306;3.150;2023-04-03T00:28:11;5.50;99.90
30206;DHT22;17010;51.306;3.150;2023-04-03T00:30:38;5.40;99.90
30206;DHT22;17010;51.306;3.150;2023-04-03T00:33:04;5.40;99.90
30206;DHT22;17010;51.306;3.150;2023-04-03T00:35:31;5.40;99.90
30206;DHT22;17010;51.306;3.150;2023-04-03T00:37:57;5.40;99.90
30206;DHT22;17010;51.306;3.150;2023-04-03T00:40:25;5.40;99.90
30206;DHT22;17010;51.306;3.150;2023-04-03T00:42:57;5.30;99.90
30206;DHT22;17010;51.306;3.150;2023-04-03T00:45:33;5.30;99.90
30206;DHT22;17010;51.306;3.150;2023-04-03T00:48:00;5.30;99.90
30206;DHT22;17010;51.306;3.150;2023-04-03T00:50:28;5.30;99.90
30206;DHT22;17010;51.306;3.150;2023-04-03T00:52:55;5.30;99.90
30206;DHT22;17010;51.306;3.150;2023-04-03T00:55:22;5.20;99.90
30206;DHT22;17010;51.306;3.150;2023-04-03T00:57:48;5.20;99.90
30206;DHT22;17010;51.306;3.150;2023-04-03T01:00:17;5.10;99.90
30206;DHT22;17010;51.306;3.150;2023-04-03T01:02:44;5.10;99.90
30206;DHT22;17010;51.306;3.150;2023-04-03T01:05:11;5.20;99.90
30206;DHT22;17010;51.306;3.150;2023-04-03T01:07:38;5.20;99.90
30206;DHT22;17010;51.306;3.150;2023-04-03T01:10:07;5.20;99.90
30206;DHT22;17010;51.306;3.150;2023-04-03T01:12:39;5.10;99.90
30206;DHT22;17010;51.306;3.150;2023-04-03T01:15:09;5.10;99.90
30206;DHT22;17010;51.306;3.150;2023-04-03T01:17:41;5.10;99.90
30206;DHT22;17010;51.306;3.150;2023-04-03T01:20:31;5.00;99.90
30206;DHT22;17010;51.306;3.150;2023-04-03T01:25:32;4.90;99.90
30206;DHT22;17010;51.306;3.150;2023-04-03T01:27:58;4.90;99.90
30206;DHT22;17010;51.306;3.150;2023-04-03T01:30:36;4.90;99.90
30206;DHT22;17010;51.306;3.150;2023-04-03T01:33:05;4.90;99.90
30206;DHT22;17010;51.306;3.150;2023-04-03T01:35:31;5.00;99.90
30206;DHT22;17010;51.306;3.150;2023-04-03T01:37:58;5.00;99.90
30206;DHT22;17010;51.306;3.150;2023-04-03T01:40:24;5.00;99.90
30206;DHT22;17010;51.306;3.150;2023-04-03T01:42:51;4.90;99.90
30206;DHT22;17010;51.306;3.150;2023-04-03T01:45:17;4.90;99.90
30206;DHT22;17010;51.306;3.150;2023-04-03T01:47:43;4.80;99.90
30206;DHT22;17010;51.306;3.150;2023-04-03T01:50:10;4.90;99.90
30206;DHT22;17010;51.306;3.150;2023-04-03T01:52:36;4.90;99.90
30206;DHT22;17010;51.306;3.150;2023-04-03T01:55:03;4.90;99.90
30206;DHT22;17010;51.306;3.150;2023-04-03T01:57:29;4.90;99.90
30206;DHT22;17010;51.306;3.150;2023-04-03T01:59:56;4.90;99.90
30206;DHT22;17010;51.306;3.150;2023-04-03T02:02:22;4.90;99.90
30206;DHT22;17010;51.306;3.150;2023-04-03T02:04:48;4.80;99.90
30206;DHT22;17010;51.306;3.150;2023-04-03T02:07:14;4.90;99.90
30206;DHT22;17010;51.306;3.150;2023-04-03T02:09:41;4.90;99.90
30206;DHT22;17010;51.306;3.150;2023-04-03T02:12:07;4.80;99.90
30206;DHT22;17010;51.306;3.150;2023-04-03T02:14:33;4.80;99.90
30206;DHT22;17010;51.306;3.150;2023-04-03T02:17:01;4.80;99.90
30206;DHT22;17010;51.306;3.150;2023-04-03T02:19:31;4.80;99.90
30206;DHT22;17010;51.306;3.150;2023-04-03T02:22:01;4.80;99.90
30206;DHT22;17010;51.306;3.150;2023-04-03T02:24:27;4.90;99.90
30206;DHT22;17010;51.306;3.150;2023-04-03T02:26:54;4.90;99.90
30206;DHT22;17010;51.306;3.150;2023-04-03T02:29:20;4.90;99.90
30206;DHT22;17010;51.306;3.150;2023-04-03T02:31:47;4.90;99.90
30206;DHT22;17010;51.306;3.150;2023-04-03T02:34:13;4.90;99.90
30206;DHT22;17010;51.306;3.150;2023-04-03T02:36:39;4.80;99.90
30206;DHT22;17010;51.306;3.150;2023-04-03T02:39:06;4.80;99.90
30206;DHT22;17010;51.306;3.150;2023-04-03T02:41:32;4.80;99.90
30206;DHT22;17010;51.306;3.150;2023-04-03T02:44:02;4.80;99.90
30206;DHT22;17010;51.306;3.150;2023-04-03T02:46:29;4.80;99.90
30206;DHT22;17010;51.306;3.150;2023-04-03T02:48:55;4.80;99.90
30206;DHT22;17010;51.306;3.150;2023-04-03T02:51:21;4.80;99.90
30206;DHT22;17010;51.306;3.150;2023-04-03T02:53:49;4.80;99.90
30206;DHT22;17010;51.306;3.150;2023-04-03T02:56:16;4.80;99.90
30206;DHT22;17010;51.306;3.150;2023-04-03T02:58:43;4.70;99.90
30206;DHT22;17010;51.306;3.150;2023-04-03T03:01:10;4.70;99.90
30206;DHT22;17010;51.306;3.150;2023-04-03T03:03:36;4.60;99.90
30206;DHT22;17010;51.306;3.150;2023-04-03T03:06:08;4.60;99.90
30206;DHT22;17010;51.306;3.150;2023-04-03T03:08:36;4.50;99.90
30206;DHT22;17010;51.306;3.150;2023-04-03T03:11:03;4.50;99.90
30206;DHT22;17010;51.306;3.150;2023-04-03T03:13:30;4.50;99.90
30206;DHT22;17010;51.306;3.150;2023-04-03T03:15:56;4.40;99.90
30206;DHT22;17010;51.306;3.150;2023-04-03T03:18:23;4.50;99.90
30206;DHT22;17010;51.306;3.150;2023-04-03T03:20:53;4.40;99.90
30206;DHT22;17010;51.306;3.150;2023-04-03T03:23:20;4.30;99.90
30206;DHT22;17010;51.306;3.150;2023-04-03T03:25:46;4.30;99.90
30206;DHT22;17010;51.306;3.150;2023-04-03T03:28:13;4.20;99.90
30206;DHT22;17010;51.306;3.150;2023-04-03T03:30:39;4.20;99.90
30206;DHT22;17010;51.306;3.150;2023-04-03T03:33:05;4.20;99.90
30206;DHT22;17010;51.306;3.150;2023-04-03T03:35:32;4.20;99.90
30206;DHT22;17010;51.306;3.150;2023-04-03T03:37:58;4.20;99.90
30206;DHT22;17010;51.306;3.150;2023-04-03T03:40:24;4.20;99.90
30206;DHT22;17010;51.306;3.150;2023-04-03T03:42:51;4.20;99.90
30206;DHT22;17010;51.306;3.150;2023-04-03T03:45:17;4.20;99.90
30206;DHT22;17010;51.306;3.150;2023-04-03T03:47:43;4.20;99.90
30206;DHT22;17010;51.306;3.150;2023-04-03T03:50:10;4.10;99.90
30206;DHT22;17010;51.306;3.150;2023-04-03T03:52:36;4.10;99.90
30206;DHT22;17010;51.306;3.150;2023-04-03T03:55:03;4.20;99.90
30206;DHT22;17010;51.306;3.150;2023-04-03T03:57:29;4.10;99.90
30206;DHT22;17010;51.306;3.150;2023-04-03T03:59:56;4.10;99.90
30206;DHT22;17010;51.306;3.150;2023-04-03T04:02:22;4.20;99.90
30206;DHT22;17010;51.306;3.150;2023-04-03T04:04:48;4.20;99.90
30206;DHT22;17010;51.306;3.150;2023-04-03T04:07:15;4.10;99.90
30206;DHT22;17010;51.306;3.150;2023-04-03T04:09:41;4.10;99.90
30206;DHT22;17010;51.306;3.150;2023-04-03T04:12:07;4.00;99.90
30206;DHT22;17010;51.306;3.150;2023-04-03T04:14:33;4.00;99.90
30206;DHT22;17010;51.306;3.150;2023-04-03T04:16:59;4.00;99.90
30206;DHT22;17010;51.306;3.150;2023-04-03T04:19:28;4.00;99.90
30206;DHT22;17010;51.306;3.150;2023-04-03T04:21:54;4.00;99.90
30206;DHT22;17010;51.306;3.150;2023-04-03T04:24:20;3.90;99.90
30206;DHT22;17010;51.306;3.150;2023-04-03T04:26:48;3.90;99.90
30206;DHT22;17010;51.306;3.150;2023-04-03T04:29:15;3.90;99.90
30206;DHT22;17010;51.306;3.150;2023-04-03T04:31:41;3.80;99.90
30206;DHT22;17010;51.306;3.150;2023-04-03T04:34:07;3.80;99.90
30206;DHT22;17010;51.306;3.150;2023-04-03T04:36:34;3.70;99.90
30206;DHT22;17010;51.306;3.150;2023-04-03T04:39:00;3.70;99.90
30206;DHT22;17010;51.306;3.150;2023-04-03T04:41:26;3.60;99.90
30206;DHT22;17010;51.306;3.150;2023-04-03T04:43:52;3.60;99.90
30206;DHT22;17010;51.306;3.150;2023-04-03T04:46:19;3.60;99.90
30206;DHT22;17010;51.306;3.150;2023-04-03T04:48:45;3.60;99.90
30206;DHT22;17010;51.306;3.150;2023-04-03T04:51:11;3.60;99.90
30206;DHT22;17010;51.306;3.150;2023-04-03T04:53:38;3.60;99.90
30206;DHT22;17010;51.306;3.150;2023-04-03T04:56:04;3.60;99.90
30206;DHT22;17010;51.306;3.150;2023-04-03T04:58:30;3.60;99.90
30206;DHT22;17010;51.306;3.150;2023-04-03T05:01:08;3.60;99.90
30206;DHT22;17010;51.306;3.150;2023-04-03T05:03:34;3.60;99.90
30206;DHT22;17010;51.306;3.150;2023-04-03T05:06:01;3.60;99.90
30206;DHT22;17010;51.306;3.150;2023-04-03T05:08:27;3.60;99.90
30206;DHT22;17010;51.306;3.150;2023-04-03T05:10:53;3.60;99.90
30206;DHT22;17010;51.306;3.150;2023-04-03T05:13:23;3.60;99.90
30206;DHT22;17010;51.306;3.150;2023-04-03T05:15:49;3.60;99.90
30206;DHT22;17010;51.306;3.150;2023-04-03T05:18:15;3.50;99.90
30206;DHT22;17010;51.306;3.150;2023-04-03T05:20:42;3.50;99.90
30206;DHT22;17010;51.306;3.150;2023-04-03T05:23:10;3.50;99.90
30206;DHT22;17010;51.306;3.150;2023-04-03T05:25:39;3.50;99.90
30206;DHT22;17010;51.306;3.150;2023-04-03T05:28:06;3.50;99.90
30206;DHT22;17010;51.306;3.150;2023-04-03T05:30:32;3.50;99.90
30206;DHT22;17010;51.306;3.150;2023-04-03T05:32:59;3.60;99.90
30206;DHT22;17010;51.306;3.150;2023-04-03T05:35:25;3.60;99.90
30206;DHT22;17010;51.306;3.150;2023-04-03T05:37:52;3.60;99.90
30206;DHT22;17010;51.306;3.150;2023-04-03T05:40:18;3.60;99.90
30206;DHT22;17010;51.306;3.150;2023-04-03T05:42:44;3.60;99.90
30206;DHT22;17010;51.306;3.150;2023-04-03T05:45:10;3.60;99.90
30206;DHT22;17010;51.306;3.150;2023-04-03T05:47:37;3.60;99.90
30206;DHT22;17010;51.306;3.150;2023-04-03T05:50:03;3.60;99.90
30206;DHT22;17010;51.306;3.150;2023-04-03T05:52:37;3.60;99.90
30206;DHT22;17010;51.306;3.150;2023-04-03T05:55:05;3.70;99.90
30206;DHT22;17010;51.306;3.150;2023-04-03T05:57:31;3.70;99.90
30206;DHT22;17010;51.306;3.150;2023-04-03T05:59:57;3.70;99.90
30206;DHT22;17010;51.306;3.150;2023-04-03T06:02:24;3.80;99.90
30206;DHT22;17010;51.306;3.150;2023-04-03T06:04:52;3.80;99.90
30206;DHT22;17010;51.306;3.150;2023-04-03T06:07:20;3.90;99.90
30206;DHT22;17010;51.306;3.150;2023-04-03T06:09:49;3.90;99.90
30206;DHT22;17010;51.306;3.150;2023-04-03T06:12:16;4.00;99.90
30206;DHT22;17010;51.306;3.150;2023-04-03T06:14:42;4.10;99.90
30206;DHT22;17010;51.306;3.150;2023-04-03T06:17:08;4.20;99.90
30206;DHT22;17010;51.306;3.150;2023-04-03T06:19:35;4.20;99.90
30206;DHT22;17010;51.306;3.150;2023-04-03T06:22:02;4.30;99.90
30206;DHT22;17010;51.306;3.150;2023-04-03T06:24:28;4.40;99.90
30206;DHT22;17010;51.306;3.150;2023-04-03T06:26:56;4.50;99.90
30206;DHT22;17010;51.306;3.150;2023-04-03T06:29:23;4.90;99.90
30206;DHT22;17010;51.306;3.150;2023-04-03T06:31:50;5.30;99.90
30206;DHT22;17010;51.306;3.150;2023-04-03T06:34:16;5.70;99.90
30206;DHT22;17010;51.306;3.150;2023-04-03T06:36:44;6.00;99.90
30206;DHT22;17010;51.306;3.150;2023-04-03T06:39:14;6.40;99.90
30206;DHT22;17010;51.306;3.150;2023-04-03T06:41:41;6.70;99.90
30206;DHT22;17010;51.306;3.150;2023-04-03T06:44:08;6.90;99.90
30206;DHT22;17010;51.306;3.150;2023-04-03T06:46:37;7.20;99.90
30206;DHT22;17010;51.306;3.150;2023-04-03T06:49:05;7.60;99.90
30206;DHT22;17010;51.306;3.150;2023-04-03T06:51:33;8.00;99.90
30206;DHT22;17010;51.306;3.150;2023-04-03T06:54:00;8.30;99.90
30206;DHT22;17010;51.306;3.150;2023-04-03T06:56:27;8.50;99.90
30206;DHT22;17010;51.306;3.150;2023-04-03T06:58:54;8.70;99.90
30206;DHT22;17010;51.306;3.150;2023-04-03T07:01:24;8.70;99.90
30206;DHT22;17010;51.306;3.150;2023-04-03T07:03:53;9.00;99.90
30206;DHT22;17010;51.306;3.150;2023-04-03T07:06:20;9.10;99.90
30206;DHT22;17010;51.306;3.150;2023-04-03T07:08:47;9.10;99.90
30206;DHT22;17010;51.306;3.150;2023-04-03T07:11:15;9.00;99.90
30206;DHT22;17010;51.306;3.150;2023-04-03T07:13:42;8.90;99.90
30206;DHT22;17010;51.306;3.150;2023-04-03T07:16:08;8.70;99.90
30206;DHT22;17010;51.306;3.150;2023-04-03T07:18:35;8.50;99.90
30206;DHT22;17010;51.306;3.150;2023-04-03T07:21:02;8.40;99.90
30206;DHT22;17010;51.306;3.150;2023-04-03T07:23:29;8.40;99.90
30206;DHT22;17010;51.306;3.150;2023-04-03T07:25:56;8.50;99.90
30206;DHT22;17010;51.306;3.150;2023-04-03T07:28:23;8.80;99.90
30206;DHT22;17010;51.306;3.150;2023-04-03T07:30:54;8.90;99.90
30206;DHT22;17010;51.306;3.150;2023-04-03T07:33:22;9.10;99.90
30206;DHT22;17010;51.306;3.150;2023-04-03T07:35:48;9.30;99.90
30206;DHT22;17010;51.306;3.150;2023-04-03T07:38:14;9.50;99.90
30206;DHT22;17010;51.306;3.150;2023-04-03T07:40:48;9.70;99.90
30206;DHT22;17010;51.306;3.150;2023-04-03T07:43:16;10.00;99.90
30206;DHT22;17010;51.306;3.150;2023-04-03T07:45:43;10.20;99.90
30206;DHT22;17010;51.306;3.150;2023-04-03T07:48:12;10.40;99.90
30206;DHT22;17010;51.306;3.150;2023-04-03T07:50:42;10.60;99.90
30206;DHT22;17010;51.306;3.150;2023-04-03T07:53:09;10.90;99.90
30206;DHT22;17010;51.306;3.150;2023-04-03T07:55:35;11.00;99.90
30206;DHT22;17010;51.306;3.150;2023-04-03T07:58:13;11.10;99.90
30206;DHT22;17010;51.306;3.150;2023-04-03T08:00:43;11.20;99.90
30206;DHT22;17010;51.306;3.150;2023-04-03T08:03:10;11.40;99.90
30206;DHT22;17010;51.306;3.150;2023-04-03T08:05:38;11.60;99.90
30206;DHT22;17010;51.306;3.150;2023-04-03T08:08:05;11.60;99.90
30206;DHT22;17010;51.306;3.150;2023-04-03T08:10:32;11.80;99.90
30206;DHT22;17010;51.306;3.150;2023-04-03T08:12:59;11.80;99.90
30206;DHT22;17010;51.306;3.150;2023-04-03T08:15:25;11.50;99.90
30206;DHT22;17010;51.306;3.150;2023-04-03T08:17:53;11.50;99.90
30206;DHT22;17010;51.306;3.150;2023-04-03T08:20:20;11.40;99.90
30206;DHT22;17010;51.306;3.150;2023-04-03T08:22:46;11.80;99.90
30206;DHT22;17010;51.306;3.150;2023-04-03T08:25:13;11.90;99.90
30206;DHT22;17010;51.306;3.150;2023-04-03T08:27:39;12.10;99.90
30206;DHT22;17010;51.306;3.150;2023-04-03T08:30:06;11.90;99.90
30206;DHT22;17010;51.306;3.150;2023-04-03T08:32:35;12.10;99.90
30206;DHT22;17010;51.306;3.150;2023-04-03T08:35:03;12.20;99.90
30206;DHT22;17010;51.306;3.150;2023-04-03T08:37:29;12.40;99.90
30206;DHT22;17010;51.306;3.150;2023-04-03T08:39:56;12.10;99.90
30206;DHT22;17010;51.306;3.150;2023-04-03T08:43:08;12.20;99.90
30206;DHT22;17010;51.306;3.150;2023-04-03T08:45:47;12.10;99.90
30206;DHT22;17010;51.306;3.150;2023-04-03T08:48:21;12.00;99.90
30206;DHT22;17010;51.306;3.150;2023-04-03T08:50:57;11.60;99.90
30206;DHT22;17010;51.306;3.150;2023-04-03T08:53:26;11.70;99.90
30206;DHT22;17010;51.306;3.150;2023-04-03T08:55:55;12.20;99.90
30206;DHT22;17010;51.306;3.150;2023-04-03T08:58:23;12.00;99.90
30206;DHT22;17010;51.306;3.150;2023-04-03T09:01:00;11.80;99.90
30206;DHT22;17010;51.306;3.150;2023-04-03T09:03:31;11.80;99.90
30206;DHT22;17010;51.306;3.150;2023-04-03T09:11:23;12.00;99.90
30206;DHT22;17010;51.306;3.150;2023-04-03T09:14:15;12.00;99.90
30206;DHT22;17010;51.306;3.150;2023-04-03T09:16:59;12.00;99.90
30206;DHT22;17010;51.306;3.150;2023-04-03T09:22:27;11.90;99.90
30206;DHT22;17010;51.306;3.150;2023-04-03T09:25:05;12.00;99.90
30206;DHT22;17010;51.306;3.150;2023-04-03T09:27:36;12.30;99.90
30206;DHT22;17010;51.306;3.150;2023-04-03T09:30:03;12.60;99.90
30206;DHT22;17010;51.306;3.150;2023-04-03T09:32:30;12.60;99.90
30206;DHT22;17010;51.306;3.150;2023-04-03T09:35:01;12.60;99.90
30206;DHT22;17010;51.306;3.150;2023-04-03T09:37:41;12.10;99.90
30206;DHT22;17010;51.306;3.150;2023-04-03T09:40:28;11.90;99.90
30206;DHT22;17010;51.306;3.150;2023-04-03T09:45:28;12.00;99.90
30206;DHT22;17010;51.306;3.150;2023-04-03T09:51:00;12.10;99.90
30206;DHT22;17010;51.306;3.150;2023-04-03T09:53:33;11.70;99.90
30206;DHT22;17010;51.306;3.150;2023-04-03T09:56:01;11.60;99.90
30206;DHT22;17010;51.306;3.150;2023-04-03T09:58:32;11.90;99.90
30206;DHT22;17010;51.306;3.150;2023-04-03T10:01:02;12.00;99.90
30206;DHT22;17010;51.306;3.150;2023-04-03T10:03:34;12.20;99.90
30206;DHT22;17010;51.306;3.150;2023-04-03T10:06:03;12.30;99.90
30206;DHT22;17010;51.306;3.150;2023-04-03T10:08:33;12.00;99.90
30206;DHT22;17010;51.306;3.150;2023-04-03T10:11:14;12.20;99.90
30206;DHT22;17010;51.306;3.150;2023-04-03T10:14:00;11.80;99.90
30206;DHT22;17010;51.306;3.150;2023-04-03T10:16:40;11.90;99.90
30206;DHT22;17010;51.306;3.150;2023-04-03T10:19:34;12.00;99.90
30206;DHT22;17010;51.306;3.150;2023-04-03T10:22:13;12.20;99.90
30206;DHT22;17010;51.306;3.150;2023-04-03T10:27:58;12.60;99.90
30206;DHT22;17010;51.306;3.150;2023-04-03T10:36:21;11.20;99.90
30206;DHT22;17010;51.306;3.150;2023-04-03T10:41:45;10.80;99.90
30206;DHT22;17010;51.306;3.150;2023-04-03T10:50:26;11.20;99.90
30206;DHT22;17010;51.306;3.150;2023-04-03T10:58:36;11.50;99.90
30206;DHT22;17010;51.306;3.150;2023-04-03T11:01:08;12.00;99.90
30206;DHT22;17010;51.306;3.150;2023-04-03T11:03:40;12.30;99.90
30206;DHT22;17010;51.306;3.150;2023-04-03T11:06:09;12.10;99.90
30206;DHT22;17010;51.306;3.150;2023-04-03T11:08:46;12.30;99.90
30206;DHT22;17010;51.306;3.150;2023-04-03T11:11:29;12.20;99.90
30206;DHT22;17010;51.306;3.150;2023-04-03T11:14:00;11.80;99.90
30206;DHT22;17010;51.306;3.150;2023-04-03T11:16:29;11.70;99.90
30206;DHT22;17010;51.306;3.150;2023-04-03T11:21:57;11.90;99.90
30206;DHT22;17010;51.306;3.150;2023-04-03T11:24:29;12.40;99.90
30206;DHT22;17010;51.306;3.150;2023-04-03T11:26:57;12.50;99.90
30206;DHT22;17010;51.306;3.150;2023-04-03T11:29:29;12.60;99.90
30206;DHT22;17010;51.306;3.150;2023-04-03T11:34:50;12.50;99.90
30206;DHT22;17010;51.306;3.150;2023-04-03T11:37:28;12.50;99.90
30206;DHT22;17010;51.306;3.150;2023-04-03T11:42:40;12.20;99.90
30206;DHT22;17010;51.306;3.150;2023-04-03T11:47:46;11.60;99.90
30206;DHT22;17010;51.306;3.150;2023-04-03T11:58:03;11.90;99.90
30206;DHT22;17010;51.306;3.150;2023-04-03T12:00:53;12.50;99.90
30206;DHT22;17010;51.306;3.150;2023-04-03T12:29:20;12.50;99.90
30206;DHT22;17010;51.306;3.150;2023-04-03T12:40:35;12.00;99.90
30206;DHT22;17010;51.306;3.150;2023-04-03T12:45:57;12.20;99.90
30206;DHT22;17010;51.306;3.150;2023-04-03T12:48:30;12.10;99.90
30206;DHT22;17010;51.306;3.150;2023-04-03T12:50:58;12.00;99.90
30206;DHT22;17010;51.306;3.150;2023-04-03T12:53:26;11.80;99.90
30206;DHT22;17010;51.306;3.150;2023-04-03T12:55:54;11.90;99.90
30206;DHT22;17010;51.306;3.150;2023-04-03T12:58:26;12.20;99.90
30206;DHT22;17010;51.306;3.150;2023-04-03T13:01:04;12.30;99.90
30206;DHT22;17010;51.306;3.150;2023-04-03T13:03:36;12.60;99.90
30206;DHT22;17010;51.306;3.150;2023-04-03T13:06:04;12.50;99.90
30206;DHT22;17010;51.306;3.150;2023-04-03T13:08:30;12.60;99.90
30206;DHT22;17010;51.306;3.150;2023-04-03T13:11:06;12.70;99.90
30206;DHT22;17010;51.306;3.150;2023-04-03T13:13:35;12.70;99.90
30206;DHT22;17010;51.306;3.150;2023-04-03T13:16:09;12.50;99.90
30206;DHT22;17010;51.306;3.150;2023-04-03T13:18:36;12.80;99.90
30206;DHT22;17010;51.306;3.150;2023-04-03T13:21:17;12.70;99.90
30206;DHT22;17010;51.306;3.150;2023-04-03T13:23:46;12.70;99.90
30206;DHT22;17010;51.306;3.150;2023-04-03T13:26:18;12.60;99.90
30206;DHT22;17010;51.306;3.150;2023-04-03T13:28:45;12.90;99.90
30206;DHT22;17010;51.306;3.150;2023-04-03T13:33:53;12.70;99.90
30206;DHT22;17010;51.306;3.150;2023-04-03T13:36:26;12.50;99.90
30206;DHT22;17010;51.306;3.150;2023-04-03T13:41:38;12.20;99.90
30206;DHT22;17010;51.306;3.150;2023-04-03T13:47:14;12.00;99.90
30206;DHT22;17010;51.306;3.150;2023-04-03T13:49:39;11.80;99.90
30206;DHT22;17010;51.306;3.150;2023-04-03T13:52:29;11.70;99.90
30206;DHT22;17010;51.306;3.150;2023-04-03T13:55:02;11.60;99.90
30206;DHT22;17010;51.306;3.150;2023-04-03T13:57:28;11.40;99.90
30206;DHT22;17010;51.306;3.150;2023-04-03T13:59:54;11.30;99.90
30206;DHT22;17010;51.306;3.150;2023-04-03T14:02:32;11.30;99.90
30206;DHT22;17010;51.306;3.150;2023-04-03T14:05:00;11.30;99.90
30206;DHT22;17010;51.306;3.150;2023-04-03T14:07:29;11.00;99.90
30206;DHT22;17010;51.306;3.150;2023-04-03T14:09:56;10.90;99.90
30206;DHT22;17010;51.306;3.150;2023-04-03T14:12:35;10.80;99.90
30206;DHT22;17010;51.306;3.150;2023-04-03T14:15:26;10.80;99.90
30206;DHT22;17010;51.306;3.150;2023-04-03T14:17:54;10.90;99.90
30206;DHT22;17010;51.306;3.150;2023-04-03T14:20:24;11.00;99.90
30206;DHT22;17010;51.306;3.150;2023-04-03T14:22:50;11.00;99.90
30206;DHT22;17010;51.306;3.150;2023-04-03T14:25:17;10.80;99.90
30206;DHT22;17010;51.306;3.150;2023-04-03T14:27:46;10.70;99.90
30206;DHT22;17010;51.306;3.150;2023-04-03T14:30:19;10.60;99.90
30206;DHT22;17010;51.306;3.150;2023-04-03T14:32:47;10.60;99.90
30206;DHT22;17010;51.306;3.150;2023-04-03T14:35:14;10.60;99.90
30206;DHT22;17010;51.306;3.150;2023-04-03T14:37:41;10.50;99.90
30206;DHT22;17010;51.306;3.150;2023-04-03T14:40:11;10.30;99.90
30206;DHT22;17010;51.306;3.150;2023-04-03T14:42:38;10.30;99.90
30206;DHT22;17010;51.306;3.150;2023-04-03T14:45:08;10.40;99.90
30206;DHT22;17010;51.306;3.150;2023-04-03T14:47:43;10.50;99.90
30206;DHT22;17010;51.306;3.150;2023-04-03T14:50:14;10.70;99.90
30206;DHT22;17010;51.306;3.150;2023-04-03T14:52:42;10.80;99.90
30206;DHT22;17010;51.306;3.150;2023-04-03T14:55:09;10.80;99.90
30206;DHT22;17010;51.306;3.150;2023-04-03T14:57:35;10.80;99.90
30206;DHT22;17010;51.306;3.150;2023-04-03T15:00:03;10.80;99.90
30206;DHT22;17010;51.306;3.150;2023-04-03T15:02:37;10.80;99.90
30206;DHT22;17010;51.306;3.150;2023-04-03T15:05:06;10.70;99.90
30206;DHT22;17010;51.306;3.150;2023-04-03T15:07:34;10.70;99.90
30206;DHT22;17010;51.306;3.150;2023-04-03T15:12:54;10.50;99.90
30206;DHT22;17010;51.306;3.150;2023-04-03T15:15:21;10.40;99.90
30206;DHT22;17010;51.306;3.150;2023-04-03T15:17:51;10.40;99.90
30206;DHT22;17010;51.306;3.150;2023-04-03T15:20:22;10.40;99.90
30206;DHT22;17010;51.306;3.150;2023-04-03T15:22:49;10.40;99.90
30206;DHT22;17010;51.306;3.150;2023-04-03T15:25:16;10.40;99.90
30206;DHT22;17010;51.306;3.150;2023-04-03T15:27:42;10.40;99.90
30206;DHT22;17010;51.306;3.150;2023-04-03T15:30:13;10.40;99.90
30206;DHT22;17010;51.306;3.150;2023-04-03T15:32:40;10.30;99.90
30206;DHT22;17010;51.306;3.150;2023-04-03T15:35:06;10.30;99.90
30206;DHT22;17010;51.306;3.150;2023-04-03T15:37:32;10.30;99.90
30206;DHT22;17010;51.306;3.150;2023-04-03T15:39:59;10.30;99.90
30206;DHT22;17010;51.306;3.150;2023-04-03T15:42:25;10.20;99.90
30206;DHT22;17010;51.306;3.150;2023-04-03T15:44:51;10.20;99.90
30206;DHT22;17010;51.306;3.150;2023-04-03T15:47:17;10.30;99.90
30206;DHT22;17010;51.306;3.150;2023-04-03T15:49:44;10.30;99.90
30206;DHT22;17010;51.306;3.150;2023-04-03T15:52:10;10.20;99.90
30206;DHT22;17010;51.306;3.150;2023-04-03T15:54:36;10.20;99.90
30206;DHT22;17010;51.306;3.150;2023-04-03T15:57:02;10.20;99.90
30206;DHT22;17010;51.306;3.150;2023-04-03T15:59:28;10.10;99.90
30206;DHT22;17010;51.306;3.150;2023-04-03T16:01:56;10.10;99.90
30206;DHT22;17010;51.306;3.150;2023-04-03T16:04:23;10.10;99.90
30206;DHT22;17010;51.306;3.150;2023-04-03T16:06:52;10.10;99.90
30206;DHT22;17010;51.306;3.150;2023-04-03T16:09:18;10.10;99.90
30206;DHT22;17010;51.306;3.150;2023-04-03T16:11:44;10.10;99.90
30206;DHT22;17010;51.306;3.150;2023-04-03T16:14:10;10.00;99.90
30206;DHT22;17010;51.306;3.150;2023-04-03T16:16:38;10.00;99.90
30206;DHT22;17010;51.306;3.150;2023-04-03T16:19:04;10.00;99.90
30206;DHT22;17010;51.306;3.150;2023-04-03T16:21:32;10.00;99.90
30206;DHT22;17010;51.306;3.150;2023-04-03T16:23:59;10.00;99.90
30206;DHT22;17010;51.306;3.150;2023-04-03T16:26:25;9.90;99.90
30206;DHT22;17010;51.306;3.150;2023-04-03T16:28:52;9.90;99.90
30206;DHT22;17010;51.306;3.150;2023-04-03T16:31:19;9.80;99.90
30206;DHT22;17010;51.306;3.150;2023-04-03T16:33:45;9.90;99.90
30206;DHT22;17010;51.306;3.150;2023-04-03T16:36:12;9.90;99.90
30206;DHT22;17010;51.306;3.150;2023-04-03T16:38:38;9.80;99.90
30206;DHT22;17010;51.306;3.150;2023-04-03T16:41:04;9.80;99.90
30206;DHT22;17010;51.306;3.150;2023-04-03T16:43:31;9.80;99.90
30206;DHT22;17010;51.306;3.150;2023-04-03T16:45:58;9.80;99.90
30206;DHT22;17010;51.306;3.150;2023-04-03T16:48:24;9.70;99.90
30206;DHT22;17010;51.306;3.150;2023-04-03T16:50:51;9.70;99.90
30206;DHT22;17010;51.306;3.150;2023-04-03T16:53:20;9.70;99.90
30206;DHT22;17010;51.306;3.150;2023-04-03T16:55:47;9.70;99.90
30206;DHT22;17010;51.306;3.150;2023-04-03T16:58:14;9.70;99.90
30206;DHT22;17010;51.306;3.150;2023-04-03T17:00:41;9.60;99.90
30206;DHT22;17010;51.306;3.150;2023-04-03T17:03:08;9.60;99.90
30206;DHT22;17010;51.306;3.150;2023-04-03T17:05:34;9.60;99.90
30206;DHT22;17010;51.306;3.150;2023-04-03T17:08:01;9.40;99.90
30206;DHT22;17010;51.306;3.150;2023-04-03T17:10:28;9.40;99.90
30206;DHT22;17010;51.306;3.150;2023-04-03T17:12:54;9.30;99.90
30206;DHT22;17010;51.306;3.150;2023-04-03T17:15:21;9.30;99.90
30206;DHT22;17010;51.306;3.150;2023-04-03T17:17:48;9.40;99.90
30206;DHT22;17010;51.306;3.150;2023-04-03T17:20:15;9.40;99.90
30206;DHT22;17010;51.306;3.150;2023-04-03T17:22:41;9.30;99.90
30206;DHT22;17010;51.306;3.150;2023-04-03T17:25:08;9.30;99.90
30206;DHT22;17010;51.306;3.150;2023-04-03T17:27:34;9.20;99.90
30206;DHT22;17010;51.306;3.150;2023-04-03T17:30:01;9.10;99.90
30206;DHT22;17010;51.306;3.150;2023-04-03T17:32:27;9.20;99.90
30206;DHT22;17010;51.306;3.150;2023-04-03T17:34:53;9.10;99.90
30206;DHT22;17010;51.306;3.150;2023-04-03T17:37:19;9.10;99.90